Time;durP1;ratioP1;P1;durP2;ratioP2;P2;SDS_P1;SDS_P2;PMS_P1;PMS_P2;Temp;Humidity;BMP_temperature;BMP_pressure;BME280_temperature;BME280_humidity;BME280_pressure;Samples;Min_cycle;Max_cycle;Signal;HPM_P1;HPM_P2
2023/06/23 00:00:28;;;;;;;21.48;19.75;;;;;;;25.09;42.87;99800.59;5025574;28;98328;-86
2023/06/23 00:02:57;;;;;;;21.10;19.60;;;;;;;25.33;42.88;99794.53;5024923;28;97055;-86
2023/06/23 00:05:23;;;;;;;22.58;20.77;;;;;;;25.41;42.29;99797.28;5032706;28;97776;-87
2023/06/23 00:07:49;;;;;;;21.23;19.50;;;;;;;25.43;42.50;99813.25;5021497;28;99082;-87
2023/06/23 00:10:14;;;;;;;20.83;19.13;;;;;;;25.52;42.76;99805.06;5014801;28;98943;-87
2023/06/23 00:12:43;;;;;;;22.73;20.70;;;;;;;25.51;42.57;99802.50;5032106;28;96693;-87
2023/06/23 00:15:11;;;;;;;21.67;20.00;;;;;;;25.51;42.84;99819.50;5017177;28;96785;-87
2023/06/23 00:17:38;;;;;;;20.92;19.23;;;;;;;25.37;42.89;99838.06;5011838;28;98725;-87
2023/06/23 00:20:10;;;;;;;21.63;20.00;;;;;;;25.42;43.21;99833.03;5025796;28;98856;-87
2023/06/23 00:22:36;;;;;;;22.90;21.30;;;;;;;25.50;42.88;99825.03;4986003;28;96718;-86
2023/06/23 00:25:03;;;;;;;22.02;20.50;;;;;;;25.45;43.04;99830.88;5018715;28;96719;-85
2023/06/23 00:27:28;;;;;;;22.20;20.50;;;;;;;25.56;43.14;99835.13;5016570;28;98724;-87
2023/06/23 00:29:54;;;;;;;22.58;20.55;;;;;;;25.59;43.00;99826.72;5002107;28;99669;-87
2023/06/23 00:32:20;;;;;;;21.73;20.17;;;;;;;25.62;43.29;99809.44;5014483;28;97592;-87
2023/06/23 00:34:45;;;;;;;22.13;20.60;;;;;;;25.57;43.70;99799.22;5015633;28;97182;-87
2023/06/23 00:37:11;;;;;;;22.40;20.80;;;;;;;25.60;43.38;99798.00;4994578;28;100484;-87
2023/06/23 00:39:36;;;;;;;22.65;20.88;;;;;;;25.41;43.95;99778.47;5025422;28;98398;-86
2023/06/23 00:42:06;;;;;;;21.52;20.13;;;;;;;25.50;43.92;99764.06;5024779;28;97034;-86
2023/06/23 00:44:33;;;;;;;22.00;20.37;;;;;;;25.38;44.90;99759.16;5014166;28;96835;-87
2023/06/23 00:47:01;;;;;;;22.25;20.52;;;;;;;25.41;44.68;99748.91;5020188;28;98781;-88
2023/06/23 00:49:28;;;;;;;22.23;20.52;;;;;;;25.24;45.20;99712.25;5015035;28;97576;-86
2023/06/23 00:51:53;;;;;;;22.50;20.85;;;;;;;25.07;46.19;99689.81;5031812;28;96671;-87
2023/06/23 00:54:19;;;;;;;22.70;20.27;;;;;;;25.16;45.53;99698.78;5017742;28;96955;-87
2023/06/23 00:56:44;;;;;;;22.20;20.52;;;;;;;25.10;45.78;99719.03;5031500;28;98739;-86
2023/06/23 00:59:10;;;;;;;22.60;20.95;;;;;;;25.05;45.93;99716.84;5009311;28;98827;-86
2023/06/23 01:01:36;;;;;;;22.23;20.63;;;;;;;25.21;45.59;99744.78;5031897;28;96812;-87
2023/06/23 01:04:02;;;;;;;22.40;20.75;;;;;;;25.21;45.70;99760.91;5024892;28;96926;-88
2023/06/23 01:06:55;;;;;;;22.50;20.77;;;;;;;25.28;45.93;99759.28;4994078;28;98941;-87
2023/06/23 01:09:56;;;;;;;23.10;21.40;;;;;;;25.21;46.09;99732.19;5000827;28;98423;-87
2023/06/23 01:12:37;;;;;;;22.90;21.25;;;;;;;25.18;46.30;99742.44;4998471;28;96926;-87
2023/06/23 01:15:16;;;;;;;23.85;21.75;;;;;;;25.27;45.96;99769.16;5003424;28;96864;-87
2023/06/23 01:17:50;;;;;;;23.05;21.25;;;;;;;25.24;45.74;99780.22;5005670;28;98015;-87
2023/06/23 01:20:23;;;;;;;22.88;21.20;;;;;;;25.12;45.93;99777.94;4994851;28;99571;-87
2023/06/23 01:23:08;;;;;;;22.23;20.33;;;;;;;24.97;46.08;99786.59;5031893;28;96657;-88
2023/06/23 01:25:46;;;;;;;22.42;20.83;;;;;;;24.93;46.42;99763.75;5014184;28;96844;-87
2023/06/23 01:28:17;;;;;;;21.88;20.17;;;;;;;25.10;46.13;99788.84;5022237;28;98918;-88
2023/06/23 01:30:47;;;;;;;23.08;21.15;;;;;;;25.12;45.90;99792.22;5017967;28;98037;-86
2023/06/23 01:33:19;;;;;;;22.02;19.80;;;;;;;25.00;45.86;99778.22;4991385;28;96896;-86
2023/06/23 01:35:49;;;;;;;21.70;20.20;;;;;;;25.12;45.86;99794.06;4976539;28;97096;-88
2023/06/23 01:38:22;;;;;;;22.20;20.40;;;;;;;25.16;45.83;99785.56;4994621;28;98588;-88
2023/06/23 01:40:52;;;;;;;22.02;20.45;;;;;;;24.94;46.06;99756.53;4979308;28;97375;-87
2023/06/23 01:43:29;;;;;;;21.98;20.27;;;;;;;24.90;46.56;99715.75;4997000;28;97150;-88
2023/06/23 01:46:05;;;;;;;22.00;20.40;;;;;;;24.75;47.07;99698.53;4978923;28;96767;-88
2023/06/23 01:48:33;;;;;;;23.27;21.52;;;;;;;24.48;47.52;99680.75;4976503;28;98007;-88
2023/06/23 01:51:02;;;;;;;23.42;21.75;;;;;;;24.49;47.64;99650.25;4976599;28;99019;-87
2023/06/23 01:53:30;;;;;;;23.30;21.42;;;;;;;24.33;48.23;99634.88;4960672;28;97471;-87
2023/06/23 01:55:57;;;;;;;22.23;20.52;;;;;;;24.39;48.36;99691.38;4993825;28;96891;-88
2023/06/23 01:58:23;;;;;;;21.42;19.95;;;;;;;24.77;47.66;99955.00;4976778;28;100366;-89
2023/06/23 02:00:49;;;;;;;23.50;21.27;;;;;;;24.89;48.43;100011.16;4976488;28;97226;-79
2023/06/23 02:03:15;;;;;;;25.23;21.80;;;;;;;24.84;49.56;99982.06;5008495;28;97324;-79
2023/06/23 02:05:41;;;;;;;24.30;21.63;;;;;;;24.89;51.30;100035.31;4995885;28;96829;-79
2023/06/23 02:08:07;;;;;;;24.40;21.67;;;;;;;24.63;55.61;100012.72;4982515;28;98576;-79
2023/06/23 02:10:33;;;;;;;23.20;21.20;;;;;;;24.56;56.94;99995.53;4998243;28;98498;-78
2023/06/23 02:12:59;;;;;;;24.27;21.88;;;;;;;24.42;59.59;99971.88;4979156;28;97340;-78
2023/06/23 02:15:25;;;;;;;23.92;21.50;;;;;;;24.53;58.94;99941.34;4979055;28;96951;-78
2023/06/23 02:17:51;;;;;;;22.92;20.92;;;;;;;24.44;59.66;99885.94;4986268;28;98584;-78
2023/06/23 02:20:17;;;;;;;22.73;20.73;;;;;;;24.52;59.13;99854.66;4983809;28;98748;-79
2023/06/23 02:22:46;;;;;;;21.75;19.95;;;;;;;24.58;58.83;99854.06;4990964;28;96727;-79
2023/06/23 02:25:11;;;;;;;21.90;19.85;;;;;;;24.60;58.91;99861.94;4975606;28;96875;-79
2023/06/23 02:27:37;;;;;;;20.25;18.58;;;;;;;24.65;58.78;99872.22;4974830;28;99150;-79
2023/06/23 02:30:04;;;;;;;20.75;18.80;;;;;;;24.60;59.50;99891.44;4978406;28;98822;-79
2023/06/23 02:32:30;;;;;;;19.88;18.58;;;;;;;24.64;59.42;99906.25;5013194;28;96831;-79
2023/06/23 02:34:57;;;;;;;20.50;18.90;;;;;;;24.69;58.97;99895.06;4992952;28;99856;-79
2023/06/23 02:37:24;;;;;;;20.50;18.67;;;;;;;24.70;59.01;99868.06;5013277;28;99158;-79
2023/06/23 02:40:06;;;;;;;19.67;18.08;;;;;;;24.61;59.52;99823.41;4974555;28;100358;-79
2023/06/23 02:42:33;;;;;;;20.00;18.48;;;;;;;24.62;59.23;99819.69;4996075;28;97621;-79
2023/06/23 02:45:02;;;;;;;21.38;19.58;;;;;;;24.63;59.60;99822.22;4995581;28;97656;-79
2023/06/23 02:47:28;;;;;;;19.40;18.00;;;;;;;24.62;59.71;99833.13;4977560;28;100582;-79
2023/06/23 02:49:59;;;;;;;20.52;18.65;;;;;;;24.62;59.88;99849.22;4994520;28;98908;-79
2023/06/23 02:52:27;;;;;;;20.23;18.73;;;;;;;24.58;60.16;99854.06;4994945;28;98515;-79
2023/06/23 02:54:53;;;;;;;20.38;18.95;;;;;;;24.59;60.18;99854.88;4994559;28;97404;-79
2023/06/23 02:57:19;;;;;;;20.30;18.67;;;;;;;24.50;60.40;99837.03;4994419;28;98996;-79
2023/06/23 02:59:46;;;;;;;19.90;18.50;;;;;;;24.46;60.06;99811.50;4994448;28;98378;-79
2023/06/23 03:02:13;;;;;;;19.77;18.48;;;;;;;24.05;61.58;99794.97;4995370;28;96901;-79
2023/06/23 03:04:41;;;;;;;20.17;18.77;;;;;;;24.11;61.34;99775.59;5012992;28;97149;-79
2023/06/23 03:07:08;;;;;;;20.42;19.02;;;;;;;24.07;61.46;99763.50;5012896;28;98617;-78
2023/06/23 03:09:33;;;;;;;20.63;19.05;;;;;;;24.12;61.16;99750.50;5012710;28;98246;-78
2023/06/23 03:11:59;;;;;;;19.98;18.52;;;;;;;24.03;61.76;99757.63;5012627;28;96858;-78
2023/06/23 03:14:26;;;;;;;19.50;18.20;;;;;;;23.52;63.40;99755.50;5012791;28;96807;-78
2023/06/23 03:17:00;;;;;;;19.90;18.60;;;;;;;23.45;63.96;99760.63;5011977;28;99011;-79
2023/06/23 03:19:29;;;;;;;20.15;18.85;;;;;;;23.67;63.05;99764.72;4994204;28;100081;-79
2023/06/23 03:22:07;;;;;;;21.33;19.40;;;;;;;23.30;64.38;99748.69;4994591;28;96804;-79
2023/06/23 03:24:36;;;;;;;20.85;19.05;;;;;;;23.30;64.45;99737.97;4982584;28;96910;-79
2023/06/23 03:27:06;;;;;;;21.65;19.90;;;;;;;23.46;63.48;99738.19;4994095;28;99008;-79
2023/06/23 03:29:33;;;;;;;21.42;19.75;;;;;;;23.68;62.70;99750.34;4993881;28;98330;-79
2023/06/23 03:32:02;;;;;;;20.70;18.83;;;;;;;23.84;62.56;99739.81;4993786;28;97151;-78
2023/06/23 03:34:42;;;;;;;20.70;19.20;;;;;;;23.93;62.53;99724.66;4994939;28;96838;-79
2023/06/23 03:37:09;;;;;;;20.77;19.23;;;;;;;24.01;62.39;99737.31;4994526;28;98481;-79
2023/06/23 03:39:40;;;;;;;20.58;19.17;;;;;;;24.03;62.60;99764.78;4993886;28;98395;-79
2023/06/23 03:42:06;;;;;;;21.23;19.67;;;;;;;24.01;62.41;99759.59;4993964;28;97253;-79
2023/06/23 03:44:36;;;;;;;20.38;18.67;;;;;;;24.05;62.42;99762.81;4994261;28;96864;-79
2023/06/23 03:47:16;;;;;;;20.38;18.88;;;;;;;24.08;62.56;99759.81;4994069;28;98973;-79
2023/06/23 03:49:47;;;;;;;21.63;19.33;;;;;;;24.08;62.63;99741.06;4993544;28;98381;-79
2023/06/23 03:52:14;;;;;;;20.50;18.93;;;;;;;24.11;62.65;99749.63;4991140;28;96696;-79
2023/06/23 03:54:41;;;;;;;20.75;19.23;;;;;;;24.07;62.45;99740.22;4993342;28;96943;-79
2023/06/23 03:57:09;;;;;;;21.40;19.85;;;;;;;24.14;62.36;99748.50;4993531;28;98586;-79
2023/06/23 03:59:37;;;;;;;21.05;19.52;;;;;;;23.99;63.23;99750.84;4993958;28;98693;-79
2023/06/23 04:02:03;;;;;;;22.60;20.50;;;;;;;23.91;63.36;99759.69;4994407;28;96739;-79
2023/06/23 04:04:31;;;;;;;21.60;20.02;;;;;;;24.01;63.00;99769.50;4994500;28;97760;-79
2023/06/23 04:06:58;;;;;;;22.13;20.55;;;;;;;23.92;63.31;99766.72;4993096;28;99035;-79
2023/06/23 04:09:24;;;;;;;22.48;20.67;;;;;;;23.83;63.54;99766.78;4993646;28;98313;-79
2023/06/23 04:11:50;;;;;;;23.15;21.02;;;;;;;23.82;63.71;99802.59;4993930;28;98521;-79
2023/06/23 04:14:17;;;;;;;23.80;21.60;;;;;;;23.83;63.35;99806.97;4993954;28;97285;-79
2023/06/23 04:16:43;;;;;;;23.40;21.17;;;;;;;23.81;63.41;99783.00;4993964;28;98642;-79
2023/06/23 04:19:10;;;;;;;22.58;20.67;;;;;;;23.66;64.18;99771.91;4993190;28;98971;-79
2023/06/23 04:21:36;;;;;;;23.30;21.50;;;;;;;23.43;64.95;99774.16;5011995;28;96756;-79
2023/06/23 04:24:04;;;;;;;24.48;22.20;;;;;;;23.61;64.60;99792.09;4993810;28;96811;-79
2023/06/23 04:26:29;;;;;;;25.10;22.60;;;;;;;23.35;65.76;99787.41;5011653;28;98977;-79
2023/06/23 04:28:55;;;;;;;23.17;21.05;;;;;;;23.33;65.50;99753.75;5010741;28;98468;-79
2023/06/23 04:31:21;;;;;;;23.92;22.02;;;;;;;23.03;66.98;99745.00;4992492;28;96819;-79
2023/06/23 04:33:47;;;;;;;23.88;22.10;;;;;;;23.21;66.04;99743.25;4993357;28;96897;-79
2023/06/23 04:36:14;;;;;;;23.67;21.65;;;;;;;23.16;65.95;99734.81;4983235;28;98902;-79
2023/06/23 04:38:45;;;;;;;22.80;21.15;;;;;;;23.26;65.58;99743.63;4989699;28;98373;-79
2023/06/23 04:41:16;;;;;;;24.17;22.10;;;;;;;23.06;66.00;99709.91;5009071;28;96866;-79
2023/06/23 04:43:43;;;;;;;23.42;21.60;;;;;;;23.32;65.38;99738.69;4993237;28;96792;-79
2023/06/23 04:46:15;;;;;;;23.73;21.73;;;;;;;23.37;65.24;99739.94;4993683;28;98793;-79
2023/06/23 04:48:45;;;;;;;24.23;22.13;;;;;;;23.35;65.36;99746.41;4993943;28;98360;-79
2023/06/23 04:51:11;;;;;;;24.75;22.75;;;;;;;23.35;65.28;99749.09;4993435;28;97053;-79
2023/06/23 04:53:39;;;;;;;24.35;22.38;;;;;;;23.41;64.79;99743.97;4993291;28;97189;-79
2023/06/23 04:56:06;;;;;;;22.92;21.23;;;;;;;23.45;64.66;99745.38;4992809;28;99155;-78
2023/06/23 04:58:35;;;;;;;24.17;22.13;;;;;;;23.52;64.71;99759.03;4992835;28;98358;-79
2023/06/23 05:01:02;;;;;;;23.05;21.45;;;;;;;23.62;64.14;99769.69;5011173;28;96665;-79
2023/06/23 05:03:27;;;;;;;23.85;21.73;;;;;;;23.68;64.18;99764.59;4993161;28;97324;-79
2023/06/23 05:05:55;;;;;;;23.48;21.77;;;;;;;23.70;64.29;99759.09;4993234;28;98601;-79
2023/06/23 05:08:23;;;;;;;23.63;21.65;;;;;;;23.71;64.25;99758.13;4993152;28;98525;-79
2023/06/23 05:10:49;;;;;;;23.33;21.63;;;;;;;23.76;64.32;99752.28;5001347;28;96876;-79
2023/06/23 05:13:17;;;;;;;25.52;23.45;;;;;;;23.79;64.19;99762.72;4984828;28;97385;-71
2023/06/23 05:15:44;;;;;;;26.77;24.33;;;;;;;23.76;64.02;99752.28;5002713;28;98664;-71
2023/06/23 05:18:10;;;;;;;25.30;23.15;;;;;;;23.81;64.42;99768.75;5015053;28;98156;-71
2023/06/23 05:20:37;;;;;;;23.83;21.92;;;;;;;23.85;64.33;99767.47;5021848;28;97051;-71
2023/06/23 05:23:05;;;;;;;25.50;23.20;;;;;;;23.90;64.28;99778.56;5004356;28;96911;-71
2023/06/23 05:25:32;;;;;;;25.25;22.88;;;;;;;23.95;64.23;99771.78;5024886;28;98847;-71
2023/06/23 05:28:02;;;;;;;24.65;22.75;;;;;;;23.99;64.37;99764.25;5001280;28;98546;-71
2023/06/23 05:30:29;;;;;;;25.30;23.23;;;;;;;24.02;64.26;99763.97;4997863;28;97638;-70
2023/06/23 05:32:56;;;;;;;23.98;22.33;;;;;;;24.05;64.13;99757.44;4996188;28;97470;-70
2023/06/23 05:35:22;;;;;;;25.85;23.48;;;;;;;24.09;64.11;99758.84;4996391;28;99025;-70
2023/06/23 05:37:49;;;;;;;26.52;24.13;;;;;;;24.14;63.72;99754.72;4995831;28;98334;-70
2023/06/23 05:40:15;;;;;;;25.85;23.75;;;;;;;24.18;64.12;99755.25;4995445;28;96698;-70
2023/06/23 05:42:41;;;;;;;25.73;23.55;;;;;;;24.15;64.15;99756.41;4997826;28;98589;-70
2023/06/23 05:45:07;;;;;;;26.10;24.00;;;;;;;23.91;64.43;99746.28;5011768;28;98699;-70
2023/06/23 05:47:52;;;;;;;25.02;23.20;;;;;;;23.96;64.63;99764.56;4998419;28;98191;-70
2023/06/23 05:50:24;;;;;;;25.80;23.73;;;;;;;24.01;64.29;99773.00;4994571;28;96870;-70
2023/06/23 05:52:57;;;;;;;26.70;24.05;;;;;;;23.97;64.55;99784.16;4999512;28;98658;-70
2023/06/23 05:55:24;;;;;;;25.65;23.55;;;;;;;23.80;65.37;99799.25;5013370;28;98777;-69
2023/06/23 05:57:54;;;;;;;25.73;23.58;;;;;;;23.85;65.31;99808.53;5006044;28;98377;-70
2023/06/23 06:00:21;;;;;;;26.52;24.27;;;;;;;23.75;65.76;99810.41;5013605;28;97078;-70
2023/06/23 06:02:48;;;;;;;28.02;25.50;;;;;;;23.65;66.31;99813.09;5000538;28;96804;-74
2023/06/23 06:05:17;;;;;;;27.33;24.65;;;;;;;23.63;66.52;99828.47;4994228;28;98545;-74
2023/06/23 06:07:44;;;;;;;26.38;23.95;;;;;;;23.66;66.50;99838.91;4994871;28;98684;-74
2023/06/23 06:10:10;;;;;;;28.30;25.33;;;;;;;23.82;65.57;99830.22;5004553;28;98089;-74
2023/06/23 06:12:36;;;;;;;26.95;24.75;;;;;;;24.07;65.32;99831.38;5014639;28;96775;-74
2023/06/23 06:15:03;;;;;;;26.02;23.67;;;;;;;24.29;64.48;99839.97;5020572;28;99218;-74
2023/06/23 06:17:30;;;;;;;26.38;24.15;;;;;;;24.44;63.76;99835.81;4999366;28;98457;-74
2023/06/23 06:19:59;;;;;;;26.77;24.77;;;;;;;24.68;62.80;99827.13;5020782;28;96818;-74
2023/06/23 06:22:26;;;;;;;26.30;24.05;;;;;;;24.83;62.62;99824.72;5003326;28;97334;-74
2023/06/23 06:24:52;;;;;;;25.38;23.27;;;;;;;25.13;61.93;99827.97;5011882;28;99110;-74
2023/06/23 06:27:19;;;;;;;26.17;23.88;;;;;;;25.32;61.29;99838.53;5004469;28;98201;-74
2023/06/23 06:29:45;;;;;;;25.67;23.67;;;;;;;25.44;61.24;99845.31;5011797;28;96701;-74
2023/06/23 06:32:12;;;;;;;25.40;23.48;;;;;;;25.68;60.69;99836.50;4999171;28;97590;-74
2023/06/23 06:34:40;;;;;;;26.15;24.00;;;;;;;25.90;59.82;99839.66;5010350;28;99117;-75
2023/06/23 06:37:07;;;;;;;29.52;26.48;;;;;;;26.14;59.37;99841.59;5002032;28;97325;-75
2023/06/23 06:39:33;;;;;;;27.73;25.38;;;;;;;26.33;59.03;99835.91;5015663;28;96744;-76
2023/06/23 06:41:59;;;;;;;27.23;24.85;;;;;;;26.60;58.35;99845.56;5014830;28;97518;-75
2023/06/23 06:44:25;;;;;;;26.13;24.10;;;;;;;26.94;56.83;99838.34;4985370;28;100479;-76
2023/06/23 06:46:52;;;;;;;25.08;22.95;;;;;;;27.30;55.98;99847.72;5005178;28;100025;-75
2023/06/23 06:49:18;;;;;;;24.25;22.48;;;;;;;27.77;55.33;99846.06;4994657;28;96950;-75
2023/06/23 06:51:45;;;;;;;26.33;24.13;;;;;;;28.27;53.63;99849.38;4995766;28;97235;-75
2023/06/23 06:54:11;;;;;;;25.95;23.55;;;;;;;28.92;52.28;99853.50;5001430;28;98658;-75
2023/06/23 06:56:36;;;;;;;25.95;23.80;;;;;;;29.60;50.79;99848.94;4996206;28;97412;-75
2023/06/23 06:59:02;;;;;;;25.70;23.40;;;;;;;30.42;49.13;99848.75;5012409;28;97332;-75
2023/06/23 07:01:28;;;;;;;26.30;24.08;;;;;;;31.35;47.20;99850.41;5012505;28;97016;-75
2023/06/23 07:03:55;;;;;;;24.30;22.50;;;;;;;32.40;44.46;99847.56;4997458;28;99030;-74
2023/06/23 07:06:21;;;;;;;23.67;21.95;;;;;;;33.56;42.14;99856.19;5020661;28;98394;-75
2023/06/23 07:08:46;;;;;;;24.70;22.50;;;;;;;34.85;40.11;99853.44;5019248;28;96786;-75
2023/06/23 07:11:13;;;;;;;23.58;21.90;;;;;;;36.21;37.37;99851.63;5019158;28;97152;-76
2023/06/23 07:13:39;;;;;;;22.98;21.23;;;;;;;37.55;35.00;99862.13;5011201;28;99022;-75
2023/06/23 07:16:05;;;;;;;24.13;22.17;;;;;;;39.03;32.67;99850.44;5020362;28;98233;-76
2023/06/23 07:18:30;;;;;;;23.42;21.38;;;;;;;40.16;31.01;99852.81;5028033;28;97593;-82
2023/06/23 07:20:56;;;;;;;22.70;20.90;;;;;;;38.75;32.54;99841.22;5026576;28;97225;-86
2023/06/23 07:23:22;;;;;;;22.65;20.50;;;;;;;37.52;33.82;99846.19;5027205;28;97935;-82
2023/06/23 07:25:48;;;;;;;22.73;21.13;;;;;;;36.81;34.82;99828.91;4996931;28;98586;-80
2023/06/23 07:28:14;;;;;;;22.45;20.95;;;;;;;36.74;35.26;99837.19;5026258;28;96691;-75
2023/06/23 07:30:42;;;;;;;22.55;20.50;;;;;;;36.29;35.98;99839.56;5025897;28;98126;-75
2023/06/23 07:33:07;;;;;;;21.92;20.27;;;;;;;36.71;35.39;99844.00;5022350;27;98747;-75
2023/06/23 07:35:33;;;;;;;23.10;21.42;;;;;;;34.18;38.97;99844.88;5024286;28;98580;-75
2023/06/23 07:37:59;;;;;;;23.98;21.70;;;;;;;33.51;40.74;99856.00;5016586;28;97359;-75
2023/06/23 07:40:25;;;;;;;24.10;21.92;;;;;;;36.52;36.15;99841.53;4998376;28;97410;-75
2023/06/23 07:42:51;;;;;;;22.67;21.08;;;;;;;35.49;37.50;99838.63;5015140;28;99650;-81
2023/06/23 07:45:16;;;;;;;23.45;21.15;;;;;;;34.10;39.32;99848.69;5023356;28;98461;-79
2023/06/23 07:47:42;;;;;;;24.23;22.15;;;;;;;32.77;42.16;99856.22;5026991;28;96943;-80
2023/06/23 07:50:07;;;;;;;24.98;23.00;;;;;;;34.89;38.28;99852.81;5016556;28;96817;-79
2023/06/23 07:52:33;;;;;;;24.83;22.65;;;;;;;33.01;41.49;99860.22;5017377;28;98573;-79
2023/06/23 07:54:58;;;;;;;24.30;22.50;;;;;;;34.36;39.45;99864.06;5012017;28;98352;-87
2023/06/23 07:57:25;;;;;;;26.23;23.70;;;;;;;33.02;41.45;99867.34;5020592;28;96714;-83
2023/06/23 07:59:50;;;;;;;25.17;22.98;;;;;;;31.82;43.70;99875.09;5023604;28;97535;-83
2023/06/23 08:02:16;;;;;;;25.65;23.67;;;;;;;35.68;37.46;99869.50;5025435;28;98618;-83
2023/06/23 08:04:42;;;;;;;26.38;24.25;;;;;;;36.05;36.26;99872.25;5016490;28;98965;-72
2023/06/23 08:07:07;;;;;;;26.33;24.05;;;;;;;34.67;38.30;99882.31;5011003;28;96736;-82
2023/06/23 08:09:33;;;;;;;26.02;23.58;;;;;;;33.28;40.75;99883.63;5011651;28;98134;-77
2023/06/23 08:11:58;;;;;;;25.92;23.83;;;;;;;32.17;42.97;99899.50;5020178;28;98632;-78
2023/06/23 08:14:24;;;;;;;26.95;24.45;;;;;;;34.77;38.78;99900.09;5021518;28;98633;-77
2023/06/23 08:16:49;;;;;;;27.63;25.42;;;;;;;32.91;41.63;99899.50;5014636;28;96826;-77
2023/06/23 08:19:21;;;;;;;27.83;25.17;;;;;;;32.23;43.05;99899.53;5011458;28;96866;-80
2023/06/23 08:21:48;;;;;;;28.80;26.27;;;;;;;35.98;36.94;99898.75;5013622;28;98711;-77
2023/06/23 08:24:13;;;;;;;27.05;25.05;;;;;;;35.34;37.55;99899.00;5018361;28;98289;-77
2023/06/23 08:26:39;;;;;;;27.38;25.13;;;;;;;37.01;35.10;99895.06;5011444;28;96757;-77
2023/06/23 08:29:04;;;;;;;28.58;26.23;;;;;;;35.47;37.73;99894.47;5010439;28;97642;-77
2023/06/23 08:31:30;;;;;;;27.25;25.13;;;;;;;35.38;37.31;99891.22;5010267;28;98613;-77
2023/06/23 08:33:55;;;;;;;27.35;25.20;;;;;;;35.10;37.95;99900.69;5010898;28;98451;-77
2023/06/23 08:36:21;;;;;;;27.30;25.13;;;;;;;35.76;37.02;99901.13;5010595;28;96572;-77
2023/06/23 08:38:47;;;;;;;28.30;25.95;;;;;;;35.60;37.41;99908.81;5011531;28;96772;-77
2023/06/23 08:41:13;;;;;;;27.25;24.85;;;;;;;36.12;36.67;99897.56;5016701;28;98713;-77
2023/06/23 08:43:44;;;;;;;26.65;24.13;;;;;;;35.83;36.84;99899.97;4992764;28;98615;-78
2023/06/23 08:46:13;;;;;;;26.70;24.13;;;;;;;35.97;36.78;99906.13;5001213;28;96850;-78
2023/06/23 08:48:45;;;;;;;25.38;23.35;;;;;;;35.51;37.94;99907.44;5020182;28;97168;-77
2023/06/23 08:51:11;;;;;;;26.90;24.38;;;;;;;35.30;38.10;99913.31;4995682;28;98572;-77
2023/06/23 08:53:37;;;;;;;25.77;23.60;;;;;;;35.14;38.59;99922.88;5001083;28;98423;-76
2023/06/23 08:56:02;;;;;;;25.48;23.35;;;;;;;35.07;38.59;99920.22;5019669;28;97991;-76
2023/06/23 08:58:28;;;;;;;25.52;23.50;;;;;;;35.02;38.58;99924.63;4996295;28;97703;-75
2023/06/23 09:00:53;;;;;;;25.23;23.30;;;;;;;35.05;38.73;99925.03;5011841;28;98767;-75
2023/06/23 09:03:19;;;;;;;26.10;24.00;;;;;;;35.22;38.50;99935.41;5025190;28;98490;-74
2023/06/23 09:05:45;;;;;;;25.65;23.75;;;;;;;35.25;38.36;99932.22;5015877;28;97501;-74
2023/06/23 09:08:11;;;;;;;25.77;23.42;;;;;;;35.74;37.53;99933.25;5026785;28;97774;-70
2023/06/23 09:10:37;;;;;;;26.60;24.20;;;;;;;35.64;37.55;99935.69;5014165;28;98579;-70
2023/06/23 09:13:27;;;;;;;26.15;23.98;;;;;;;35.29;37.86;99939.75;5027028;28;98236;-70
2023/06/23 09:15:53;;;;;;;27.63;25.20;;;;;;;34.93;38.43;99927.63;4998933;28;96934;-70
2023/06/23 09:18:19;;;;;;;27.17;24.85;;;;;;;34.40;39.69;99938.81;5014200;28;97258;-70
2023/06/23 09:20:52;;;;;;;26.80;24.50;;;;;;;34.05;40.00;99935.63;5017021;28;98722;-70
2023/06/23 09:23:23;;;;;;;27.15;24.67;;;;;;;33.74;40.47;99942.56;5018248;28;98893;-70
2023/06/23 09:25:50;;;;;;;27.25;25.05;;;;;;;34.00;40.32;99949.00;5029907;28;97142;-70
2023/06/23 09:28:36;;;;;;;25.42;23.45;;;;;;;34.34;40.24;99953.31;5020553;28;96939;-70
2023/06/23 09:31:15;;;;;;;25.20;23.15;;;;;;;34.32;40.10;99958.13;5021990;28;98783;-70
2023/06/23 09:33:49;;;;;;;25.98;23.88;;;;;;;34.27;39.94;99949.78;5031932;28;98573;-69
2023/06/23 09:36:15;;;;;;;26.38;23.88;;;;;;;34.60;39.53;99951.53;5025266;28;98646;-70
2023/06/23 09:38:40;;;;;;;26.90;24.27;;;;;;;34.29;40.88;99939.50;5026654;28;97096;-70
2023/06/23 09:41:14;;;;;;;25.67;23.35;;;;;;;34.18;40.96;99941.03;5016041;28;98817;-69
2023/06/23 09:43:45;;;;;;;24.55;22.55;;;;;;;34.13;40.85;99940.84;5013627;28;98445;-70
2023/06/23 09:46:17;;;;;;;26.20;24.00;;;;;;;33.76;41.88;99942.38;5018414;28;97020;-70
2023/06/23 09:48:49;;;;;;;48.83;28.85;;;;;;;33.40;42.43;99942.84;5009885;28;96821;-69
2023/06/23 09:51:18;;;;;;;26.27;23.95;;;;;;;32.46;43.64;99949.97;5021932;28;98906;-69
2023/06/23 09:53:44;;;;;;;25.08;22.98;;;;;;;32.58;43.80;99942.94;4994228;28;98573;-70
2023/06/23 09:56:15;;;;;;;25.92;23.30;;;;;;;33.25;42.34;99943.88;5030134;28;96812;-71
2023/06/23 09:58:41;;;;;;;25.92;23.35;;;;;;;33.32;42.13;99954.75;5013900;28;97147;-80
2023/06/23 10:01:10;;;;;;;25.38;23.13;;;;;;;33.43;42.01;99948.69;4995076;28;98989;-80
2023/06/23 10:03:49;;;;;;;25.75;23.38;;;;;;;33.68;41.93;99948.88;5000577;28;97529;-80
2023/06/23 10:06:22;;;;;;;25.60;23.40;;;;;;;33.95;42.38;99936.06;5014539;28;96788;-70
2023/06/23 10:08:47;;;;;;;24.52;22.60;;;;;;;34.11;41.49;99933.94;5008186;28;96801;-70
2023/06/23 10:11:17;;;;;;;26.08;23.77;;;;;;;34.05;41.39;99927.47;5018367;28;98921;-80
2023/06/23 10:13:43;;;;;;;24.65;22.63;;;;;;;33.69;42.21;99917.09;5011932;28;98787;-74
2023/06/23 10:16:08;;;;;;;23.75;21.95;;;;;;;33.85;41.98;99919.31;4994634;28;97668;-73
2023/06/23 10:18:34;;;;;;;24.00;22.00;;;;;;;33.92;41.87;99925.59;5013403;28;97398;-74
2023/06/23 10:21:00;;;;;;;24.92;22.77;;;;;;;33.88;41.92;99918.91;4994793;28;98679;-73
2023/06/23 10:23:26;;;;;;;24.00;22.10;;;;;;;33.78;41.58;99922.06;5012526;28;98611;-80
2023/06/23 10:25:54;;;;;;;34.70;23.13;;;;;;;33.72;41.69;99919.38;5013041;28;98670;-79
2023/06/23 10:28:20;;;;;;;24.85;22.70;;;;;;;33.56;41.78;99918.75;5017703;28;96869;-78
2023/06/23 10:30:46;;;;;;;24.48;22.48;;;;;;;33.57;41.80;99927.78;5006340;28;98596;-77
2023/06/23 10:33:18;;;;;;;23.83;21.83;;;;;;;33.74;41.54;99933.59;5013190;28;98368;-77
2023/06/23 10:35:45;;;;;;;23.38;21.65;;;;;;;33.86;41.55;99934.63;5013193;28;96965;-77
2023/06/23 10:38:12;;;;;;;22.98;21.38;;;;;;;33.74;41.78;99933.59;4995531;28;97170;-77
2023/06/23 10:40:39;;;;;;;23.45;21.67;;;;;;;33.50;41.94;99937.78;4985656;28;98769;-77
2023/06/23 10:43:07;;;;;;;24.20;22.13;;;;;;;33.33;42.99;99935.50;5012001;28;99050;-77
2023/06/23 10:45:33;;;;;;;23.00;21.20;;;;;;;33.38;42.32;99945.75;5019622;28;97049;-77
2023/06/23 10:47:58;;;;;;;24.38;22.45;;;;;;;33.20;42.46;99942.84;5015889;28;96925;-77
2023/06/23 10:50:24;;;;;;;23.48;21.83;;;;;;;33.05;43.01;99934.88;5017120;28;98612;-77
2023/06/23 10:52:49;;;;;;;23.95;21.65;;;;;;;32.77;44.28;99935.84;5006068;28;98658;-77
2023/06/23 10:55:35;;;;;;;25.35;22.95;;;;;;;32.64;43.97;99927.69;5012711;28;96773;-77
2023/06/23 10:58:16;;;;;;;24.00;22.10;;;;;;;32.68;43.44;99921.63;5013325;28;96909;-77
2023/06/23 11:01:00;;;;;;;24.48;22.38;;;;;;;32.58;44.95;99923.03;5008141;28;98779;-77
2023/06/23 11:03:36;;;;;;;22.45;20.67;;;;;;;32.11;45.39;99924.72;5014890;28;98484;-77
2023/06/23 11:06:09;;;;;;;23.60;21.63;;;;;;;31.53;46.19;99920.44;5014147;28;97789;-77
2023/06/23 11:08:39;;;;;;;24.00;21.98;;;;;;;31.14;47.41;99934.47;5022751;28;96722;-77
2023/06/23 11:11:05;;;;;;;;;;;;;;;30.75;47.98;99940.31;5012757;28;98608;-77
2023/06/23 11:13:46;;;;;;;23.88;21.98;;;;;;;30.55;48.07;99940.13;5017117;28;96795;-79
2023/06/23 11:16:17;;;;;;;24.45;22.02;;;;;;;30.43;48.49;99940.63;5014827;28;97141;-78
2023/06/23 11:18:49;;;;;;;;;;;;;;;30.26;48.68;99949.97;5017800;28;98920;-78
2023/06/23 11:21:19;;;;;;;24.98;22.33;;;;;;;30.21;48.67;99950.53;5014705;28;98979;-77